Time;durP1;ratioP1;P1;durP2;ratioP2;P2;SDS_P1;SDS_P2;PMS_P1;PMS_P2;Temp;Humidity;BMP_temperature;BMP_pressure;BME280_temperature;BME280_humidity;BME280_pressure;Samples;Min_cycle;Max_cycle;Signal;HPM_P1;HPM_P2
2023/10/05 00:01:37;;;;;;;4.23;1.40;;;15.80;99.90;;;;;;6102744;23;20239;-93
2023/10/05 00:04:15;;;;;;;0.63;0.53;;;15.80;99.90;;;;;;6102592;23;20184;-93
2023/10/05 00:06:45;;;;;;;2.10;1.13;;;15.90;99.90;;;;;;6102201;23;20176;-91
2023/10/05 00:09:15;;;;;;;2.90;0.93;;;15.80;99.90;;;;;;6101884;23;20462;-90
2023/10/05 00:11:41;;;;;;;1.73;0.93;;;15.90;99.90;;;;;;6102015;23;20230;-94
2023/10/05 00:14:09;;;;;;;1.30;1.20;;;15.80;99.90;;;;;;6101649;23;20587;-93
2023/10/05 00:16:38;;;;;;;1.80;1.10;;;15.80;99.90;;;;;;6102822;23;20159;-94
2023/10/05 00:19:12;;;;;;;2.60;0.43;;;15.80;99.90;;;;;;6127970;23;20160;-93
2023/10/05 00:21:48;;;;;;;2.07;1.70;;;15.90;99.90;;;;;;6079517;23;20297;-94
2023/10/05 00:24:40;;;;;;;5.33;1.63;;;15.90;99.90;;;;;;6102770;23;20148;-94
2023/10/05 00:27:10;;;;;;;2.30;0.87;;;15.80;99.90;;;;;;6127644;23;20224;-93
2023/10/05 00:29:41;;;;;;;4.13;1.33;;;15.90;99.90;;;;;;6101575;23;20152;-96
2023/10/05 00:32:34;;;;;;;2.60;1.40;;;15.90;99.90;;;;;;6102188;23;20201;-94
2023/10/05 00:35:24;;;;;;;3.60;0.77;;;15.90;99.90;;;;;;6102608;23;20633;-94
2023/10/05 00:37:50;;;;;;;0.93;0.70;;;15.80;99.90;;;;;;6102071;23;20199;-92
2023/10/05 00:40:37;;;;;;;0.30;0.30;;;15.80;99.90;;;;;;6101985;23;20156;-91
2023/10/05 00:43:12;;;;;;;4.77;1.63;;;15.80;99.90;;;;;;6102647;23;20203;-94
2023/10/05 00:45:46;;;;;;;0.73;0.70;;;15.80;99.90;;;;;;6081299;23;20148;-94
2023/10/05 00:48:27;;;;;;;0.80;0.80;;;15.80;99.90;;;;;;6080107;23;20159;-92
2023/10/05 00:51:00;;;;;;;6.20;1.70;;;15.80;99.90;;;;;;6102010;23;20236;-93
2023/10/05 00:53:30;;;;;;;2.10;0.90;;;15.80;99.90;;;;;;6101250;23;20144;-94
2023/10/05 00:56:08;;;;;;;3.57;1.37;;;15.80;99.90;;;;;;6126444;23;20164;-94
2023/10/05 00:58:42;;;;;;;3.00;1.40;;;15.80;99.90;;;;;;6127922;23;20220;-94
2023/10/05 01:01:14;;;;;;;0.63;0.60;;;15.90;99.90;;;;;;6102008;23;20159;-95
2023/10/05 01:09:12;;;;;;;1.73;0.67;;;15.80;99.90;;;;;;6101855;23;20630;-95
2023/10/05 01:11:42;;;;;;;0.60;0.57;;;15.80;99.90;;;;;;6101911;23;20184;-95
2023/10/05 01:14:09;;;;;;;10.23;1.20;;;15.80;99.90;;;;;;6127546;23;20145;-95
2023/10/05 01:16:35;;;;;;;0.53;0.53;;;15.80;99.90;;;;;;6101728;23;20163;-94
2023/10/05 01:19:08;;;;;;;1.73;1.10;;;15.90;99.90;;;;;;6101556;23;20173;-94
2023/10/05 01:21:47;;;;;;;4.60;0.97;;;15.90;99.90;;;;;;6101322;23;20148;-92
2023/10/05 01:24:20;;;;;;;3.40;1.23;;;15.90;99.90;;;;;;6101703;23;20496;-93
2023/10/05 01:26:49;;;;;;;2.67;0.60;;;16.00;99.90;;;;;;6102554;23;20228;-91
2023/10/05 01:29:15;;;;;;;2.60;1.07;;;16.00;99.90;;;;;;6101626;23;20239;-92
2023/10/05 01:31:41;;;;;;;13.10;4.13;;;15.90;99.90;;;;;;6101808;23;20275;-89
2023/10/05 01:34:08;;;;;;;0.57;0.57;;;15.90;99.90;;;;;;6078472;23;20160;-91
2023/10/05 01:36:34;;;;;;;5.57;1.00;;;15.90;99.90;;;;;;6101107;23;20156;-91
2023/10/05 01:39:08;;;;;;;1.00;1.00;;;15.90;99.90;;;;;;6101339;23;20234;-92
2023/10/05 01:41:37;;;;;;;1.87;1.07;;;15.80;99.90;;;;;;6080177;23;20156;-91
2023/10/05 01:44:04;;;;;;;4.90;0.83;;;15.80;99.90;;;;;;6101835;23;20161;-91
2023/10/05 01:46:36;;;;;;;0.33;0.33;;;15.80;99.90;;;;;;6127232;23;20182;-91
2023/10/05 01:49:02;;;;;;;5.97;0.97;;;15.80;99.90;;;;;;6101716;23;20164;-92
2023/10/05 01:51:28;;;;;;;1.40;1.00;;;15.80;99.90;;;;;;6100902;23;20668;-90
2023/10/05 01:54:10;;;;;;;3.20;2.17;;;15.80;99.90;;;;;;6126636;23;20641;-91
2023/10/05 01:56:37;;;;;;;4.00;1.20;;;15.70;99.90;;;;;;6125827;23;20144;-90
2023/10/05 01:59:06;;;;;;;2.97;1.33;;;15.70;99.90;;;;;;6101691;23;20164;-90
2023/10/05 02:01:36;;;;;;;1.37;1.23;;;15.70;99.90;;;;;;6126840;23;20159;-91
2023/10/05 02:04:06;;;;;;;3.00;1.33;;;15.70;99.90;;;;;;6101624;23;20141;-92
2023/10/05 02:06:48;;;;;;;2.10;0.60;;;15.70;99.90;;;;;;6078405;23;20182;-90
2023/10/05 02:09:19;;;;;;;10.43;0.70;;;15.70;99.90;;;;;;6101353;23;20156;-91
2023/10/05 02:11:47;;;;;;;3.07;1.30;;;15.70;99.90;;;;;;6101324;23;20188;-91
2023/10/05 02:14:15;;;;;;;3.73;1.30;;;15.70;99.90;;;;;;6127722;23;20601;-91
2023/10/05 02:16:50;;;;;;;4.60;1.77;;;15.70;99.90;;;;;;6078188;23;20536;-92
2023/10/05 02:19:16;;;;;;;4.57;1.40;;;15.70;99.90;;;;;;6101406;23;20227;-92
2023/10/05 02:21:53;;;;;;;3.30;1.17;;;15.70;99.90;;;;;;6101023;23;20653;-91
2023/10/05 02:24:22;;;;;;;3.57;1.33;;;15.70;99.90;;;;;;6079042;23;20543;-91
2023/10/05 02:29:31;;;;;;;5.17;1.50;;;15.60;99.90;;;;;;6104292;23;20155;-90
2023/10/05 02:34:41;;;;;;;4.27;1.23;;;15.60;99.90;;;;;;6129305;23;20180;-90
2023/10/05 02:37:19;;;;;;;1.70;1.27;;;15.70;99.90;;;;;;6105578;23;20224;-91
2023/10/05 02:39:45;;;;;;;0.50;0.50;;;15.70;99.90;;;;;;6107196;23;20151;-90
2023/10/05 02:42:16;;;;;;;3.07;1.63;;;15.70;99.90;;;;;;6108833;23;20192;-90
2023/10/05 02:44:45;;;;;;;0.80;0.70;;;15.80;99.90;;;;;;6135375;23;20152;-91
2023/10/05 02:47:14;;;;;;;2.47;1.40;;;15.80;99.90;;;;;;6135034;23;20159;-91
2023/10/05 02:49:44;;;;;;;3.83;1.30;;;15.80;99.90;;;;;;6103620;23;20157;-89
2023/10/05 02:52:15;;;;;;;3.03;0.77;;;15.80;99.90;;;;;;6079719;23;20238;-90
2023/10/05 02:54:45;;;;;;;2.43;1.30;;;15.80;99.90;;;;;;6102379;23;20203;-89
2023/10/05 02:57:14;;;;;;;4.13;1.87;;;15.80;99.90;;;;;;6128066;23;20156;-89
2023/10/05 02:59:40;;;;;;;3.37;1.60;;;15.80;99.90;;;;;;6102997;23;20207;-90
2023/10/05 03:02:07;;;;;;;1.87;1.03;;;15.90;99.90;;;;;;6102368;23;20606;-89
2023/10/05 03:04:49;;;;;;;5.90;1.50;;;15.90;99.90;;;;;;6079335;23;20180;-91
2023/10/05 03:07:16;;;;;;;0.97;0.90;;;15.90;99.90;;;;;;6103025;23;20183;-89
2023/10/05 03:09:46;;;;;;;8.73;1.20;;;15.90;99.90;;;;;;6127883;23;20153;-90
2023/10/05 03:12:14;;;;;;;3.07;0.80;;;15.80;99.90;;;;;;6079527;23;20223;-90
2023/10/05 03:14:43;;;;;;;4.07;0.87;;;15.80;99.90;;;;;;6102640;23;20167;-89
2023/10/05 03:17:45;;;;;;;1.20;0.90;;;15.80;99.90;;;;;;6103531;23;20163;-88
2023/10/05 03:20:06;;;;;;;1.40;1.07;;;15.80;99.90;;;;;;6102329;23;20500;-91
2023/10/05 03:22:34;;;;;;;6.07;1.63;;;15.80;99.90;;;;;;6103210;23;20159;-90
2023/10/05 03:25:03;;;;;;;1.33;0.73;;;15.80;99.90;;;;;;6127885;23;20156;-86
2023/10/05 03:27:30;;;;;;;1.97;1.20;;;15.80;99.90;;;;;;6102819;23;20499;-88
2023/10/05 03:30:03;;;;;;;3.30;1.90;;;15.80;99.90;;;;;;6102215;23;20156;-90
2023/10/05 03:32:28;;;;;;;5.23;1.60;;;15.80;99.90;;;;;;6102454;23;20208;-91
2023/10/05 03:34:58;;;;;;;6.73;1.20;;;15.70;99.90;;;;;;6078039;23;20157;-88
2023/10/05 03:37:24;;;;;;;11.50;2.07;;;15.70;99.90;;;;;;6103690;23;20179;-88
2023/10/05 03:40:08;;;;;;;3.43;1.90;;;15.70;99.90;;;;;;6077847;23;20491;-91
2023/10/05 03:42:34;;;;;;;1.90;1.40;;;15.70;99.90;;;;;;6081667;23;20152;-90
2023/10/05 03:47:30;;;;;;;2.27;1.30;;;15.60;99.90;;;;;;6101929;23;20160;-89
2023/10/05 03:49:56;;;;;;;4.23;1.43;;;15.60;99.90;;;;;;6101633;23;20152;-90
2023/10/05 03:52:29;;;;;;;4.20;1.70;;;15.60;99.90;;;;;;6127451;23;20188;-91
2023/10/05 03:55:04;;;;;;;4.67;1.40;;;15.60;99.90;;;;;;6130443;23;20227;-88
2023/10/05 03:57:31;;;;;;;1.27;1.10;;;15.60;99.90;;;;;;6107863;23;20178;-90
2023/10/05 04:00:18;;;;;;;2.63;1.03;;;15.60;99.90;;;;;;6131234;23;20156;-88
2023/10/05 04:02:44;;;;;;;2.17;1.23;;;15.50;99.90;;;;;;6106603;23;20152;-87
2023/10/05 04:05:17;;;;;;;1.33;0.70;;;15.50;99.90;;;;;;6106882;23;20190;-88
2023/10/05 04:07:43;;;;;;;5.67;1.07;;;15.50;99.90;;;;;;6107834;23;20148;-88
2023/10/05 04:10:13;;;;;;;1.47;0.83;;;15.40;99.90;;;;;;6104253;23;20180;-90
2023/10/05 04:12:40;;;;;;;2.70;0.90;;;15.40;99.90;;;;;;6101858;23;20239;-89
2023/10/05 04:15:11;;;;;;;3.00;1.33;;;15.40;99.90;;;;;;6101669;23;20156;-90
2023/10/05 04:17:38;;;;;;;5.40;1.30;;;15.40;99.90;;;;;;6079167;23;20155;-88
2023/10/05 04:20:17;;;;;;;6.37;1.60;;;15.40;99.90;;;;;;6127890;23;20223;-90
2023/10/05 04:22:43;;;;;;;5.97;1.40;;;15.40;99.90;;;;;;6081131;23;20199;-90
2023/10/05 04:25:11;;;;;;;3.53;2.13;;;15.30;99.90;;;;;;6102948;23;20152;-92
2023/10/05 04:27:38;;;;;;;2.40;0.97;;;15.30;99.90;;;;;;6078037;23;20188;-90
2023/10/05 04:30:04;;;;;;;1.93;1.30;;;15.30;99.90;;;;;;6081283;23;20160;-90
2023/10/05 04:32:30;;;;;;;4.97;1.37;;;15.30;99.90;;;;;;6106220;23;20188;-88
2023/10/05 04:34:56;;;;;;;5.63;1.80;;;15.30;99.90;;;;;;6082065;23;20215;-89
2023/10/05 04:37:22;;;;;;;1.17;0.93;;;15.30;99.90;;;;;;6058003;23;20176;-89
2023/10/05 04:39:48;;;;;;;4.57;1.53;;;15.30;99.90;;;;;;6055107;23;20157;-92
2023/10/05 04:42:15;;;;;;;1.03;0.70;;;15.20;99.90;;;;;;6101559;23;20172;-91
2023/10/05 04:44:41;;;;;;;3.97;1.07;;;15.20;99.90;;;;;;6101245;23;20156;-91
2023/10/05 04:47:09;;;;;;;4.37;0.93;;;15.20;99.90;;;;;;6101294;23;20165;-90
2023/10/05 04:49:37;;;;;;;1.27;0.50;;;15.30;99.90;;;;;;6077970;23;20157;-90
2023/10/05 04:52:06;;;;;;;1.33;1.23;;;15.20;99.90;;;;;;6101505;23;20212;-92
2023/10/05 04:54:38;;;;;;;1.50;0.80;;;15.20;99.90;;;;;;6077878;23;20276;-91
2023/10/05 04:57:07;;;;;;;3.60;0.90;;;15.30;99.90;;;;;;6126040;23;20256;-90
2023/10/05 05:07:52;;;;;;;4.17;1.10;;;15.30;99.90;;;;;;6103193;23;20175;-90
2023/10/05 05:10:20;;;;;;;10.73;1.80;;;15.30;99.90;;;;;;6126778;23;20160;-91
2023/10/05 05:12:47;;;;;;;3.40;0.87;;;15.30;99.90;;;;;;6100817;23;20279;-91
2023/10/05 05:15:14;;;;;;;2.77;1.07;;;15.30;99.90;;;;;;6101532;23;20184;-92
2023/10/05 05:17:40;;;;;;;0.87;0.87;;;15.30;99.90;;;;;;6101645;23;20160;-91
2023/10/05 05:20:11;;;;;;;3.00;0.67;;;15.30;99.90;;;;;;6077369;23;20217;-89
2023/10/05 05:22:38;;;;;;;1.50;1.40;;;15.30;99.90;;;;;;6055246;23;20207;-89
2023/10/05 05:25:06;;;;;;;1.57;0.43;;;15.30;99.90;;;;;;6101645;23;20164;-89
2023/10/05 05:27:33;;;;;;;1.60;1.03;;;15.30;99.90;;;;;;6101433;23;20160;-92
2023/10/05 05:29:59;;;;;;;4.30;0.87;;;15.30;99.90;;;;;;6078285;23;20156;-90
2023/10/05 05:32:25;;;;;;;3.07;0.90;;;15.30;99.90;;;;;;6077581;23;20201;-91
2023/10/05 05:34:51;;;;;;;6.90;1.93;;;15.30;99.90;;;;;;6077099;23;20160;-91
2023/10/05 05:39:53;;;;;;;1.93;1.60;;;15.20;99.90;;;;;;6127201;23;20164;-91
2023/10/05 05:42:20;;;;;;;2.20;0.80;;;15.10;99.90;;;;;;6101075;23;20590;-89
2023/10/05 05:44:46;;;;;;;10.83;1.37;;;15.10;99.90;;;;;;6101362;23;20156;-90
2023/10/05 05:47:14;;;;;;;2.70;1.20;;;15.10;99.90;;;;;;6101082;23;20160;-90
2023/10/05 05:49:46;;;;;;;9.17;0.90;;;15.10;99.90;;;;;;6101619;23;20159;-90
2023/10/05 05:52:15;;;;;;;3.50;1.17;;;15.10;99.90;;;;;;6101452;23;20187;-88
2023/10/05 05:54:42;;;;;;;3.63;1.33;;;15.10;99.90;;;;;;6126673;23;20207;-92
2023/10/05 05:57:11;;;;;;;2.13;0.87;;;15.10;99.90;;;;;;6101194;23;20179;-88
2023/10/05 05:59:38;;;;;;;2.77;0.60;;;15.10;99.90;;;;;;6101582;23;20156;-90
2023/10/05 06:02:07;;;;;;;4.00;1.00;;;15.20;99.90;;;;;;6101171;23;20263;-88
2023/10/05 06:04:38;;;;;;;0.80;0.80;;;15.30;99.90;;;;;;6101381;23;20152;-94
2023/10/05 06:07:11;;;;;;;2.70;1.10;;;15.30;99.90;;;;;;6101389;23;20168;-88
2023/10/05 06:09:39;;;;;;;4.23;1.47;;;15.30;99.90;;;;;;6079004;23;20243;-90
2023/10/05 06:12:05;;;;;;;3.13;1.03;;;15.40;99.90;;;;;;6078638;23;20188;-89
2023/10/05 06:14:34;;;;;;;2.87;1.13;;;15.40;99.90;;;;;;6102920;23;20403;-89
2023/10/05 06:17:01;;;;;;;7.03;1.50;;;15.40;99.90;;;;;;6103408;23;20168;-89
2023/10/05 06:19:29;;;;;;;3.87;3.27;;;15.40;99.90;;;;;;6103157;23;20156;-89
2023/10/05 06:21:55;;;;;;;1.47;0.73;;;15.40;99.90;;;;;;6103751;23;20268;-91
2023/10/05 06:24:21;;;;;;;3.10;1.07;;;15.40;99.90;;;;;;6078872;23;20156;-89
2023/10/05 06:26:47;;;;;;;7.30;1.47;;;15.40;99.90;;;;;;6077914;23;20160;-89
2023/10/05 06:29:13;;;;;;;5.13;0.97;;;15.40;99.90;;;;;;6102443;23;20156;-89
2023/10/05 06:31:43;;;;;;;3.40;1.03;;;15.40;99.90;;;;;;6102683;23;20238;-90
2023/10/05 06:34:12;;;;;;;7.83;1.80;;;15.40;99.90;;;;;;6102869;23;20239;-92
2023/10/05 06:36:44;;;;;;;3.27;1.23;;;15.50;99.90;;;;;;6102674;23;20179;-90
2023/10/05 06:39:12;;;;;;;1.83;0.90;;;15.50;99.90;;;;;;6103137;23;20145;-89
2023/10/05 06:41:38;;;;;;;6.57;1.37;;;15.50;99.90;;;;;;6103367;23;20263;-91
2023/10/05 06:44:07;;;;;;;0.60;0.60;;;15.60;99.90;;;;;;6078874;23;20602;-89
2023/10/05 06:46:34;;;;;;;20.10;1.83;;;15.60;99.90;;;;;;6103091;23;20215;-89
2023/10/05 06:49:03;;;;;;;1.17;1.10;;;15.60;99.90;;;;;;6102611;23;20160;-91
2023/10/05 06:51:30;;;;;;;12.40;1.60;;;15.60;99.90;;;;;;6103349;23;20253;-90
2023/10/05 06:53:57;;;;;;;3.40;0.93;;;15.60;99.90;;;;;;6102976;23;20203;-89
2023/10/05 06:56:23;;;;;;;3.83;0.73;;;15.60;99.90;;;;;;6102423;23;20180;-88
2023/10/05 06:58:49;;;;;;;1.23;0.60;;;15.50;99.90;;;;;;6102456;23;20157;-91
2023/10/05 07:01:19;;;;;;;2.47;0.83;;;15.60;99.90;;;;;;6102960;23;20156;-89
2023/10/05 07:03:45;;;;;;;1.17;0.73;;;15.60;99.90;;;;;;6079270;23;20629;-90
2023/10/05 07:06:11;;;;;;;2.53;0.97;;;15.70;99.90;;;;;;6078658;23;20160;-91
2023/10/05 07:08:37;;;;;;;1.03;0.73;;;15.70;99.90;;;;;;6079769;23;20160;-89
2023/10/05 07:11:06;;;;;;;2.07;0.63;;;15.80;99.90;;;;;;6102403;23;20248;-88
2023/10/05 07:13:32;;;;;;;0.90;0.90;;;15.80;99.90;;;;;;6103663;23;20156;-91
2023/10/05 07:16:00;;;;;;;4.73;1.20;;;15.90;99.90;;;;;;6102684;23;20152;-88
2023/10/05 07:18:27;;;;;;;0.73;0.57;;;15.90;99.90;;;;;;6102681;23;20160;-88
2023/10/05 07:20:53;;;;;;;3.03;0.93;;;15.90;99.90;;;;;;6103211;23;20158;-89
2023/10/05 07:23:18;;;;;;;2.27;1.30;;;16.00;99.90;;;;;;6102378;23;20191;-90
2023/10/05 07:25:44;;;;;;;2.00;0.97;;;16.10;99.90;;;;;;6102014;23;20152;-90
2023/10/05 07:28:14;;;;;;;6.60;1.50;;;16.10;99.90;;;;;;6102657;23;20167;-90
2023/10/05 07:30:45;;;;;;;1.57;1.20;;;16.20;99.90;;;;;;6080343;23;20172;-87
2023/10/05 07:33:11;;;;;;;2.20;0.93;;;16.10;99.90;;;;;;6103277;23;20188;-92
2023/10/05 07:35:38;;;;;;;0.83;0.70;;;16.00;99.90;;;;;;6128114;23;20168;-92
2023/10/05 07:38:06;;;;;;;2.80;1.30;;;16.00;99.90;;;;;;6078579;23;20231;-91
2023/10/05 07:40:36;;;;;;;7.73;0.57;;;16.00;99.90;;;;;;6102500;23;20163;-92
2023/10/05 07:43:03;;;;;;;2.63;0.87;;;16.00;99.90;;;;;;6128264;23;20163;-87
2023/10/05 07:45:29;;;;;;;1.33;1.20;;;16.00;99.90;;;;;;6102369;23;20159;-89
2023/10/05 07:47:56;;;;;;;1.00;0.90;;;16.00;99.90;;;;;;6078607;23;20164;-90
2023/10/05 07:50:25;;;;;;;4.73;1.90;;;16.00;99.90;;;;;;6128169;23;20159;-91
2023/10/05 07:52:51;;;;;;;9.83;2.07;;;16.00;99.90;;;;;;6078413;23;20192;-90
2023/10/05 07:55:17;;;;;;;4.97;2.20;;;16.10;99.90;;;;;;6101787;23;20275;-88
2023/10/05 07:57:44;;;;;;;5.70;0.70;;;16.20;99.90;;;;;;6102314;23;20171;-90
2023/10/05 08:00:13;;;;;;;2.57;1.27;;;16.20;99.90;;;;;;6102329;23;20183;-91
2023/10/05 08:02:40;;;;;;;8.33;1.67;;;16.20;99.90;;;;;;6102750;23;20184;-88
2023/10/05 08:05:08;;;;;;;4.90;1.03;;;16.30;99.90;;;;;;6077371;23;20167;-89
2023/10/05 08:07:34;;;;;;;3.27;1.37;;;16.20;99.90;;;;;;6101769;23;20156;-88
2023/10/05 08:10:00;;;;;;;10.23;1.53;;;16.30;99.90;;;;;;6078479;23;20239;-89
2023/10/05 08:12:28;;;;;;;6.53;1.60;;;16.30;99.90;;;;;;6101818;23;20184;-89
2023/10/05 08:14:56;;;;;;;6.67;1.57;;;16.20;99.90;;;;;;6127988;23;20180;-91
2023/10/05 08:17:22;;;;;;;4.37;1.37;;;16.30;99.90;;;;;;6078154;23;20192;-91
2023/10/05 08:19:48;;;;;;;1.80;1.07;;;16.30;99.90;;;;;;6077946;23;20184;-92
2023/10/05 08:22:16;;;;;;;6.40;1.90;;;16.30;99.90;;;;;;6102083;23;20157;-89
2023/10/05 08:24:42;;;;;;;3.90;2.07;;;16.40;99.90;;;;;;6078247;23;20161;-91
2023/10/05 08:27:13;;;;;;;2.30;1.10;;;16.70;99.90;;;;;;6102162;23;20204;-92
2023/10/05 08:29:40;;;;;;;3.90;1.70;;;16.70;99.90;;;;;;6102090;23;20467;-90
2023/10/05 08:32:07;;;;;;;3.57;2.40;;;16.70;99.90;;;;;;6102486;23;20188;-92
2023/10/05 08:34:33;;;;;;;3.37;1.53;;;16.70;99.90;;;;;;6101804;23;20160;-89
2023/10/05 08:37:02;;;;;;;7.47;1.53;;;16.80;99.90;;;;;;6101952;23;20191;-92
2023/10/05 08:39:30;;;;;;;4.73;2.17;;;16.80;99.90;;;;;;6102074;23;20217;-91
2023/10/05 08:42:02;;;;;;;1.30;1.20;;;16.70;99.90;;;;;;6078820;23;20198;-93
2023/10/05 08:44:30;;;;;;;12.90;1.73;;;16.60;99.90;;;;;;6103054;23;20148;-91
2023/10/05 08:46:57;;;;;;;3.20;1.13;;;16.50;99.90;;;;;;6102942;23;20184;-92
2023/10/05 08:49:24;;;;;;;1.83;1.03;;;16.30;99.90;;;;;;6079147;23;20217;-89
2023/10/05 08:51:51;;;;;;;2.57;0.97;;;16.20;99.90;;;;;;6101834;23;20180;-88
2023/10/05 08:54:27;;;;;;;4.87;1.80;;;16.00;99.90;;;;;;6079102;23;20214;-90
2023/10/05 08:57:09;;;;;;;1.20;1.10;;;15.90;99.90;;;;;;6080110;23;20176;-92
2023/10/05 08:59:36;;;;;;;3.23;0.93;;;16.10;99.90;;;;;;6102580;23;20226;-91
2023/10/05 09:02:02;;;;;;;5.53;1.33;;;16.10;99.90;;;;;;6080357;23;20175;-95
2023/10/05 09:04:43;;;;;;;5.57;1.20;;;16.10;99.90;;;;;;6079989;23;20157;-92
2023/10/05 09:07:38;;;;;;;5.57;1.93;;;16.20;99.90;;;;;;6082895;23;20231;-91
2023/10/05 09:10:21;;;;;;;3.90;1.40;;;16.20;99.90;;;;;;6103352;23;20227;-94
2023/10/05 09:12:58;;;;;;;5.90;1.27;;;16.40;99.90;;;;;;6103750;23;20213;-93
2023/10/05 09:17:58;;;;;;;2.37;1.27;;;16.50;99.90;;;;;;6133946;23;20167;-92
2023/10/05 09:20:32;;;;;;;5.07;1.70;;;16.50;99.90;;;;;;6127810;23;20160;-95
2023/10/05 09:23:01;;;;;;;2.50;1.27;;;16.40;99.90;;;;;;6103973;23;20636;-93
2023/10/05 09:25:47;;;;;;;2.33;1.40;;;16.60;99.90;;;;;;6101911;23;20159;-93
2023/10/05 09:28:45;;;;;;;6.10;1.40;;;16.70;99.90;;;;;;6126119;23;20155;-91
2023/10/05 09:31:11;;;;;;;2.00;1.37;;;16.80;99.90;;;;;;6101978;23;20470;-93
2023/10/05 09:33:49;;;;;;;4.13;1.03;;;16.90;99.90;;;;;;6078048;23;20231;-92
2023/10/05 09:36:22;;;;;;;2.03;1.37;;;17.10;99.90;;;;;;6101560;23;20140;-92
2023/10/05 09:38:51;;;;;;;0.93;0.93;;;17.10;99.90;;;;;;6102636;23;20562;-94
2023/10/05 09:41:18;;;;;;;4.07;1.50;;;17.10;99.90;;;;;;6105008;23;20152;-92
2023/10/05 09:43:44;;;;;;;3.03;2.00;;;17.00;99.90;;;;;;6103396;23;20180;-91
2023/10/05 09:46:11;;;;;;;3.63;1.83;;;16.90;99.90;;;;;;6102215;23;20152;-92
2023/10/05 09:48:38;;;;;;;2.27;1.60;;;16.90;99.90;;;;;;6103087;23;20183;-89
2023/10/05 09:51:10;;;;;;;5.27;2.13;;;16.80;99.90;;;;;;6107077;23;20160;-93
2023/10/05 09:53:42;;;;;;;2.13;2.03;;;16.90;99.90;;;;;;6106442;23;20154;-91
2023/10/05 09:56:14;;;;;;;4.77;2.20;;;16.90;99.90;;;;;;6106586;23;20196;-90
2023/10/05 09:58:42;;;;;;;7.20;1.50;;;16.90;99.90;;;;;;6105870;23;20160;-90
2023/10/05 10:01:11;;;;;;;4.00;1.13;;;17.00;99.90;;;;;;6077984;23;20180;-91
2023/10/05 10:03:39;;;;;;;0.83;0.83;;;16.90;99.90;;;;;;6078740;23;20156;-91
2023/10/05 10:06:10;;;;;;;9.10;1.77;;;16.80;99.90;;;;;;6102046;23;20184;-90
2023/10/05 10:09:26;;;;;;;6.93;1.57;;;16.90;99.90;;;;;;6102598;23;20152;-92
2023/10/05 10:11:35;;;;;;;2.63;1.13;;;16.80;99.90;;;;;;6116957;23;20214;-92
2023/10/05 10:14:06;;;;;;;1.80;1.43;;;16.90;99.90;;;;;;6077637;23;20156;-88
2023/10/05 10:16:39;;;;;;;1.90;0.93;;;16.90;99.90;;;;;;6101651;23;20147;-90
2023/10/05 10:19:19;;;;;;;0.67;0.60;;;17.00;99.90;;;;;;6079691;23;20149;-91
2023/10/05 10:21:49;;;;;;;6.00;1.53;;;17.00;99.90;;;;;;6101750;23;20159;-87
2023/10/05 10:24:17;;;;;;;0.77;0.73;;;16.90;99.90;;;;;;6127026;23;20186;-88
2023/10/05 10:26:53;;;;;;;3.27;1.30;;;16.90;99.90;;;;;;6101395;23;20156;-88
2023/10/05 10:29:23;;;;;;;3.77;1.40;;;16.70;99.90;;;;;;6100987;23;20247;-89
2023/10/05 10:32:20;;;;;;;1.10;1.00;;;16.80;99.90;;;;;;6101504;23;20621;-89
2023/10/05 10:35:07;;;;;;;5.07;1.33;;;16.70;99.90;;;;;;6125732;23;20160;-90
2023/10/05 10:37:44;;;;;;;1.03;0.93;;;16.50;99.90;;;;;;6101415;23;20149;-89
2023/10/05 10:40:25;;;;;;;2.67;1.20;;;16.40;99.90;;;;;;6100606;23;20151;-87
2023/10/05 10:43:06;;;;;;;6.07;1.93;;;16.40;99.90;;;;;;6080048;23;20473;-90
2023/10/05 10:45:44;;;;;;;3.70;1.17;;;16.50;99.90;;;;;;6080117;23;20175;-89
2023/10/05 10:48:21;;;;;;;0.80;0.80;;;16.60;99.90;;;;;;6101068;23;20575;-88
2023/10/05 10:50:52;;;;;;;2.57;1.80;;;16.90;99.90;;;;;;6101305;23;20148;-87
2023/10/05 10:53:18;;;;;;;2.40;1.13;;;17.10;99.90;;;;;;6126602;23;20176;-88
2023/10/05 10:56:12;;;;;;;3.10;1.33;;;17.30;99.90;;;;;;6047085;23;20256;-89
2023/10/05 10:58:44;;;;;;;7.10;1.57;;;17.30;99.90;;;;;;6055450;23;20161;-90
2023/10/05 11:01:29;;;;;;;10.20;2.07;;;17.40;99.90;;;;;;6073411;23;20145;-92
2023/10/05 11:04:04;;;;;;;3.20;1.07;;;17.30;99.90;;;;;;6074228;23;20232;-90
2023/10/05 11:06:48;;;;;;;1.50;1.13;;;17.00;99.90;;;;;;6073766;23;20152;-89
2023/10/05 11:10:06;;;;;;;3.57;1.33;;;17.10;99.90;;;;;;6050806;23;20524;-92
2023/10/05 11:12:57;;;;;;;8.47;1.40;;;17.30;99.90;;;;;;6076156;23;20464;-92
2023/10/05 11:15:32;;;;;;;7.87;1.67;;;17.70;99.90;;;;;;6051517;23;20189;-91
2023/10/05 11:18:04;;;;;;;7.27;1.93;;;18.00;99.90;;;;;;6052127;23;20156;-93
2023/10/05 11:20:43;;;;;;;3.03;1.07;;;18.00;99.90;;;;;;6048448;23;20165;-92
2023/10/05 11:23:11;;;;;;;6.20;2.60;;;18.20;99.90;;;;;;6050887;23;20160;-91
2023/10/05 11:25:47;;;;;;;9.10;1.83;;;18.30;99.90;;;;;;6072959;23;20622;-91
2023/10/05 11:28:40;;;;;;;4.37;1.23;;;18.30;99.90;;;;;;6065615;23;20165;-91
2023/10/05 11:31:26;;;;;;;5.90;1.80;;;18.10;99.90;;;;;;6073571;23;20169;-92
2023/10/05 11:33:53;;;;;;;6.03;1.70;;;17.90;99.90;;;;;;6072113;23;20161;-92
2023/10/05 11:36:30;;;;;;;10.80;1.47;;;17.90;99.90;;;;;;6073473;23;20289;-91
2023/10/05 11:39:05;;;;;;;1.73;1.13;;;17.90;99.90;;;;;;6051381;23;20272;-92
2023/10/05 11:41:39;;;;;;;1.10;1.00;;;17.90;99.90;;;;;;6052090;23;20176;-92
2023/10/05 11:44:18;;;;;;;0.77;0.67;;;17.90;99.90;;;;;;6051202;23;20233;-92
2023/10/05 11:46:54;;;;;;;0.90;0.90;;;18.00;99.90;;;;;;6072663;23;20157;-92
2023/10/05 11:49:33;;;;;;;9.73;1.37;;;18.00;99.90;;;;;;6074143;23;20161;-91
2023/10/05 11:52:00;;;;;;;4.47;2.60;;;17.80;99.90;;;;;;6073198;23;20176;-89
2023/10/05 11:54:32;;;;;;;2.87;1.20;;;17.60;99.90;;;;;;6103202;23;20198;-91
2023/10/05 11:57:01;;;;;;;1.13;0.73;;;17.40;99.90;;;;;;6102647;23;20185;-90
2023/10/05 11:59:31;;;;;;;2.23;1.00;;;17.20;99.90;;;;;;6102204;23;20199;-88
2023/10/05 12:01:57;;;;;;;9.47;1.20;;;16.90;99.90;;;;;;6102273;23;20155;-88
2023/10/05 12:04:24;;;;;;;2.40;1.13;;;16.80;99.90;;;;;;6128216;23;20663;-91
2023/10/05 12:06:58;;;;;;;1.00;1.00;;;16.90;99.90;;;;;;6102430;23;20166;-92
2023/10/05 12:09:42;;;;;;;4.77;1.33;;;17.00;99.90;;;;;;6102678;23;20152;-89
2023/10/05 12:12:13;;;;;;;6.93;1.20;;;17.30;99.90;;;;;;6102504;23;20267;-91
2023/10/05 12:14:41;;;;;;;2.67;1.67;;;17.40;99.90;;;;;;6128265;23;20151;-91
2023/10/05 12:17:07;;;;;;;3.80;1.37;;;17.50;99.90;;;;;;6127488;23;20622;-91
2023/10/05 12:19:37;;;;;;;0.80;0.70;;;17.50;99.90;;;;;;6127731;23;20651;-92
2023/10/05 12:22:03;;;;;;;4.13;1.57;;;17.50;99.90;;;;;;6102400;23;20175;-91
2023/10/05 12:24:33;;;;;;;4.23;1.20;;;17.60;99.90;;;;;;6102373;23;20166;-92
2023/10/05 12:27:00;;;;;;;5.37;1.00;;;17.90;99.90;;;;;;6102112;23;20149;-90
2023/10/05 12:29:28;;;;;;;3.70;1.20;;;17.90;99.90;;;;;;6078184;23;20163;-92
2023/10/05 12:31:56;;;;;;;2.57;1.30;;;18.20;99.90;;;;;;6101823;23;20180;-90
2023/10/05 12:34:23;;;;;;;1.43;1.03;;;18.10;99.90;;;;;;6102780;23;20168;-92
2023/10/05 12:36:49;;;;;;;2.90;1.43;;;18.20;99.90;;;;;;6053975;23;20160;-89
2023/10/05 12:39:17;;;;;;;2.20;1.13;;;18.20;99.90;;;;;;6102272;23;20156;-91
2023/10/05 12:41:46;;;;;;;2.07;1.10;;;18.20;99.90;;;;;;6102342;23;20156;-90
2023/10/05 12:44:15;;;;;;;1.33;1.00;;;18.20;99.90;;;;;;6101489;23;20156;-91
2023/10/05 12:46:42;;;;;;;5.63;1.47;;;17.90;99.90;;;;;;6101791;23;20159;-90
2023/10/05 12:49:12;;;;;;;5.23;1.10;;;17.80;99.90;;;;;;6101813;23;20614;-91
2023/10/05 12:51:38;;;;;;;3.50;1.30;;;17.80;99.90;;;;;;6101706;23;20316;-90
2023/10/05 12:54:09;;;;;;;3.50;1.07;;;17.90;99.90;;;;;;6101368;23;20152;-88
2023/10/05 12:56:38;;;;;;;5.70;1.57;;;18.00;99.90;;;;;;6127708;23;20206;-89
2023/10/05 12:59:07;;;;;;;6.73;1.63;;;18.00;99.90;;;;;;6101330;23;20597;-90
2023/10/05 13:01:42;;;;;;;4.60;1.27;;;18.10;99.90;;;;;;6054863;23;20160;-91
2023/10/05 13:04:09;;;;;;;4.40;0.90;;;18.30;99.90;;;;;;6101936;23;20149;-93
2023/10/05 13:06:39;;;;;;;2.30;1.03;;;18.10;99.90;;;;;;6101478;23;20625;-90
2023/10/05 13:09:11;;;;;;;1.67;1.57;;;18.10;99.90;;;;;;6054904;23;20167;-90
2023/10/05 13:11:39;;;;;;;11.00;1.57;;;18.20;99.90;;;;;;6079147;23;20204;-91
2023/10/05 13:14:14;;;;;;;1.67;1.10;;;18.20;99.90;;;;;;6055170;23;20156;-89
2023/10/05 13:16:40;;;;;;;2.33;0.70;;;18.20;99.90;;;;;;6127303;23;20143;-89
2023/10/05 13:19:09;;;;;;;1.17;1.17;;;18.40;99.90;;;;;;6101566;23;20255;-90
2023/10/05 13:21:44;;;;;;;2.07;1.27;;;18.30;99.90;;;;;;6102228;23;20485;-90
2023/10/05 13:24:11;;;;;;;4.47;2.60;;;18.30;99.90;;;;;;6101749;23;20162;-90
2023/10/05 13:26:46;;;;;;;1.67;0.90;;;18.40;99.90;;;;;;6101753;23;20455;-89
2023/10/05 13:29:20;;;;;;;5.00;1.47;;;18.30;99.90;;;;;;6102131;23;20152;-89
2023/10/05 13:31:50;;;;;;;4.00;1.33;;;18.20;99.90;;;;;;6104051;23;20183;-90